Time;durP1;ratioP1;P1;durP2;ratioP2;P2;SDS_P1;SDS_P2;PMS_P1;PMS_P2;Temp;Humidity;BMP_temperature;BMP_pressure;BME280_temperature;BME280_humidity;BME280_pressure;Samples;Min_cycle;Max_cycle;Signal;HPM_P1;HPM_P2
2022/05/17 00:01:19;;;;;;;17.87;6.50;;;;;;;6.25;56.79;99567.78;1731935;82;21545;-76
2022/05/17 00:03:45;;;;;;;11.85;5.67;;;;;;;6.26;56.63;99566.91;1731970;82;21565;-77
2022/05/17 00:06:11;;;;;;;10.95;5.58;;;;;;;6.27;56.52;99571.25;1732421;82;21609;-77
2022/05/17 00:08:39;;;;;;;10.08;5.78;;;;;;;6.27;56.47;99566.03;1732130;82;21773;-77
2022/05/17 00:11:06;;;;;;;16.62;5.70;;;;;;;6.27;56.48;99558.61;1732542;82;21565;-77
2022/05/17 00:13:33;;;;;;;14.87;5.95;;;;;;;6.26;56.34;99562.98;1732330;82;21066;-77
2022/05/17 00:16:01;;;;;;;11.12;6.20;;;;;;;6.24;56.32;99556.92;1732188;82;21394;-76
2022/05/17 00:18:27;;;;;;;14.33;7.00;;;;;;;6.24;56.36;99561.30;1732539;82;21474;-77
2022/05/17 00:20:54;;;;;;;13.53;6.58;;;;;;;6.22;56.35;99558.70;1732117;82;21655;-77
2022/05/17 00:23:20;;;;;;;14.60;6.62;;;;;;;6.20;56.32;99556.53;1734568;82;21565;-77
2022/05/17 00:25:47;;;;;;;12.88;6.12;;;;;;;6.20;56.37;99551.31;1743395;82;21590;-76
2022/05/17 00:28:16;;;;;;;10.40;6.40;;;;;;;6.21;56.37;99552.20;1720081;82;20920;-77
2022/05/17 00:30:42;;;;;;;14.65;7.03;;;;;;;6.21;56.37;99554.81;1743382;82;21603;-77
2022/05/17 00:33:09;;;;;;;16.62;6.10;;;;;;;6.23;56.43;99557.80;1743440;82;21500;-77
2022/05/17 00:35:36;;;;;;;16.35;6.53;;;;;;;6.24;56.53;99560.84;1743738;82;21095;-77
2022/05/17 00:38:03;;;;;;;15.30;6.65;;;;;;;6.25;56.55;99561.24;1743695;82;21126;-77
2022/05/17 00:40:30;;;;;;;13.85;6.53;;;;;;;6.25;56.59;99557.33;1743548;82;21047;-77
2022/05/17 00:42:56;;;;;;;17.87;6.45;;;;;;;6.30;56.59;99557.26;1743576;82;22032;-77
2022/05/17 00:45:23;;;;;;;12.20;6.08;;;;;;;6.31;56.57;99552.46;1743287;82;21498;-76
2022/05/17 00:48:04;;;;;;;15.28;6.97;;;;;;;6.36;56.61;99557.63;1743826;82;21574;-77
2022/05/17 00:50:36;;;;;;;12.30;6.55;;;;;;;6.37;56.80;99553.67;1720439;82;21063;-77
2022/05/17 00:53:14;;;;;;;10.00;6.25;;;;;;;6.39;56.84;99556.23;1748353;81;21504;-77
2022/05/17 00:55:47;;;;;;;15.48;7.05;;;;;;;6.41;56.75;99557.09;1747830;81;21131;-77
2022/05/17 00:58:27;;;;;;;12.50;6.85;;;;;;;6.43;56.70;99551.39;1752674;81;21013;-76
2022/05/17 01:01:03;;;;;;;13.60;6.25;;;;;;;6.46;56.59;99553.50;1752164;81;21073;-77
2022/05/17 01:03:41;;;;;;;12.70;6.05;;;;;;;6.50;56.57;99551.70;1738784;81;21531;-77
2022/05/17 01:06:07;;;;;;;10.88;6.25;;;;;;;6.53;56.65;99550.34;1735472;81;21021;-77
2022/05/17 01:08:35;;;;;;;15.18;6.53;;;;;;;6.59;56.36;99551.55;1752691;81;21125;-77
2022/05/17 01:11:02;;;;;;;11.95;6.53;;;;;;;6.62;56.41;99548.88;1752651;81;21056;-77
2022/05/17 01:16:14;;;;;;;12.68;6.20;;;;;;;6.70;55.98;99545.66;1752575;81;21022;-76
2022/05/17 01:18:42;;;;;;;10.63;5.62;;;;;;;6.75;56.05;99539.50;1752258;81;21191;-77
2022/05/17 01:21:12;;;;;;;10.20;5.40;;;;;;;6.76;55.98;99537.28;1703453;81;21741;-77
2022/05/17 01:23:39;;;;;;;11.95;5.30;;;;;;;6.81;55.64;99542.02;1748497;81;21132;-77
2022/05/17 01:26:12;;;;;;;10.75;5.20;;;;;;;6.82;55.72;99534.56;1735262;82;21065;-77
2022/05/17 01:28:39;;;;;;;7.92;4.55;;;;;;;6.83;55.73;99537.60;1735569;82;21128;-77
2022/05/17 01:31:05;;;;;;;8.98;4.90;;;;;;;6.85;55.48;99539.73;1735887;82;21089;-77
2022/05/17 01:33:33;;;;;;;11.88;4.80;;;;;;;6.85;55.61;99540.59;1735573;82;21131;-77
2022/05/17 01:36:01;;;;;;;11.50;4.80;;;;;;;6.86;55.51;99534.48;1735784;82;21005;-77
2022/05/17 01:38:28;;;;;;;5.53;3.60;;;;;;;6.88;55.22;99535.77;1733940;82;21339;-76
2022/05/17 01:40:54;;;;;;;7.17;4.00;;;;;;;6.89;55.20;99534.85;1732447;82;20994;-77
2022/05/17 01:43:21;;;;;;;10.23;4.05;;;;;;;6.90;55.16;99531.36;1732464;82;21090;-77
2022/05/17 01:45:47;;;;;;;9.68;4.20;;;;;;;6.91;55.15;99529.17;1732141;82;21526;-77
2022/05/17 01:48:14;;;;;;;6.62;3.85;;;;;;;6.90;54.97;99533.97;1732212;82;21111;-76
2022/05/17 01:50:41;;;;;;;7.12;3.42;;;;;;;6.90;54.97;99535.28;1732441;82;22164;-77
2022/05/17 01:53:08;;;;;;;8.68;4.03;;;;;;;6.90;55.03;99535.73;1732261;82;21070;-77
2022/05/17 01:55:34;;;;;;;9.63;3.70;;;;;;;6.87;55.07;99528.34;1732521;82;21055;-77
2022/05/17 01:58:01;;;;;;;6.65;3.75;;;;;;;6.86;54.97;99533.17;1732186;82;21168;-77
2022/05/17 02:00:28;;;;;;;6.42;3.58;;;;;;;6.85;54.99;99527.97;1732113;82;21133;-76
2022/05/17 02:02:54;;;;;;;5.50;3.05;;;;;;;6.84;55.09;99532.77;1732224;82;21957;-77
2022/05/17 02:05:23;;;;;;;9.23;3.17;;;;;;;6.82;55.39;99528.87;1732634;82;21517;-76
2022/05/17 02:07:51;;;;;;;8.20;3.10;;;;;;;6.81;55.06;99527.63;1732440;82;21070;-77
2022/05/17 02:10:19;;;;;;;6.55;3.08;;;;;;;6.78;55.54;99523.75;1732282;82;21154;-77
2022/05/17 02:12:47;;;;;;;10.08;3.45;;;;;;;6.76;55.77;99521.59;1732532;82;21652;-77
2022/05/17 02:15:14;;;;;;;6.33;2.87;;;;;;;6.73;55.61;99527.76;1732369;82;21552;-76
2022/05/17 02:17:40;;;;;;;4.92;2.70;;;;;;;6.70;55.34;99531.27;1732234;82;21493;-77
2022/05/17 02:20:09;;;;;;;5.47;2.67;;;;;;;6.67;55.24;99523.52;1732272;82;21596;-77
2022/05/17 02:22:36;;;;;;;7.47;2.52;;;;;;;6.65;55.47;99529.20;1732320;82;21069;-77
2022/05/17 02:25:03;;;;;;;4.40;2.40;;;;;;;6.63;55.62;99529.67;1739406;82;21047;-77
2022/05/17 02:27:29;;;;;;;6.12;2.87;;;;;;;6.59;55.39;99524.09;1743341;82;21055;-76
2022/05/17 02:29:56;;;;;;;4.50;2.62;;;;;;;6.58;55.64;99524.98;1743704;82;21040;-77
2022/05/17 02:32:23;;;;;;;4.40;2.10;;;;;;;6.56;55.37;99515.45;1743703;82;21110;-77
2022/05/17 02:34:51;;;;;;;4.20;2.47;;;;;;;6.56;55.02;99524.15;1743930;82;22245;-76
2022/05/17 02:37:17;;;;;;;5.62;2.17;;;;;;;6.55;54.93;99522.87;1743559;82;21638;-76
2022/05/17 02:39:45;;;;;;;3.77;2.10;;;;;;;6.55;54.90;99525.48;1743959;82;21118;-76
2022/05/17 02:42:12;;;;;;;5.00;2.22;;;;;;;6.54;54.84;99520.70;1743502;82;21063;-76
2022/05/17 02:44:39;;;;;;;3.62;2.15;;;;;;;6.55;54.74;99518.48;1751035;81;21088;-77
2022/05/17 02:47:06;;;;;;;4.75;2.33;;;;;;;6.56;54.67;99521.53;1752457;81;21119;-77
2022/05/17 02:49:32;;;;;;;4.37;2.30;;;;;;;6.58;54.64;99518.44;1752422;81;21077;-76
2022/05/17 02:52:02;;;;;;;3.45;2.05;;;;;;;6.62;54.63;99527.09;1752704;81;21056;-77
2022/05/17 02:54:29;;;;;;;2.47;1.67;;;;;;;6.64;54.57;99514.42;1752161;81;21076;-76
2022/05/17 02:56:57;;;;;;;5.35;2.10;;;;;;;6.68;54.70;99512.15;1752598;81;21002;-77
2022/05/17 02:59:23;;;;;;;7.78;1.87;;;;;;;6.73;54.73;99517.75;1752480;81;21116;-76
2022/05/17 03:01:50;;;;;;;5.25;2.08;;;;;;;6.76;54.91;99514.63;1752472;81;21021;-76
2022/05/17 03:04:16;;;;;;;5.42;2.52;;;;;;;6.78;55.07;99509.38;1752695;81;21057;-77
2022/05/17 03:06:44;;;;;;;3.25;2.17;;;;;;;6.82;54.96;99517.11;1752258;81;21089;-77
2022/05/17 03:09:10;;;;;;;10.40;2.15;;;;;;;6.87;54.94;99508.72;1752674;81;21048;-77
2022/05/17 03:11:37;;;;;;;15.10;2.60;;;;;;;6.93;54.76;99506.91;1752368;81;22241;-77
2022/05/17 03:14:04;;;;;;;6.03;2.22;;;;;;;7.01;54.87;99509.78;1752508;81;22068;-77
2022/05/17 03:16:31;;;;;;;6.15;2.20;;;;;;;7.06;54.96;99497.47;1752485;81;21457;-76
2022/05/17 03:18:59;;;;;;;5.62;1.95;;;;;;;7.13;55.01;99488.16;1752192;81;21005;-77
2022/05/17 03:21:25;;;;;;;4.65;2.10;;;;;;;7.18;54.99;99476.72;1752515;81;21144;-77
2022/05/17 03:23:52;;;;;;;4.70;1.95;;;;;;;7.23;55.12;99478.79;1752131;81;21147;-76
2022/05/17 03:26:18;;;;;;;5.03;1.80;;;;;;;7.30;54.48;99500.45;1752342;81;21012;-77
2022/05/17 03:28:45;;;;;;;6.20;1.85;;;;;;;7.37;54.20;99506.42;1752230;81;21072;-76
2022/05/17 03:31:13;;;;;;;4.42;2.17;;;;;;;7.43;54.48;99509.77;1752544;81;21014;-77
2022/05/17 03:33:41;;;;;;;5.12;2.05;;;;;;;7.50;54.68;99496.52;1752304;81;21116;-77
2022/05/17 03:36:08;;;;;;;4.65;1.92;;;;;;;7.55;55.02;99501.23;1752431;81;22154;-77
2022/05/17 03:38:36;;;;;;;3.22;1.87;;;;;;;7.62;54.72;99504.13;1752155;81;21068;-76
2022/05/17 03:41:03;;;;;;;4.80;1.85;;;;;;;7.69;53.87;99497.84;1752711;81;21006;-77
2022/05/17 03:43:30;;;;;;;5.83;1.72;;;;;;;7.79;52.83;99499.34;1745826;81;21671;-76
2022/05/17 03:45:58;;;;;;;4.72;1.67;;;;;;;7.92;51.85;99499.92;1743833;82;21003;-76
2022/05/17 03:48:26;;;;;;;8.10;1.67;;;;;;;8.04;52.04;99504.00;1743755;82;21085;-77
2022/05/17 03:50:52;;;;;;;5.05;1.70;;;;;;;8.13;51.71;99506.38;1743355;82;21126;-76
2022/05/17 03:53:19;;;;;;;3.98;1.70;;;;;;;8.20;51.57;99503.16;1743685;82;21067;-77
2022/05/17 03:55:46;;;;;;;2.60;1.60;;;;;;;8.27;51.39;99498.20;1743359;82;20988;-76
2022/05/17 03:58:13;;;;;;;5.12;1.57;;;;;;;8.35;50.94;99500.60;1743375;82;20988;-77
2022/05/17 04:00:40;;;;;;;1.92;1.50;;;;;;;8.39;50.93;99497.02;1743609;82;21189;-77
2022/05/17 04:03:07;;;;;;;6.58;1.40;;;;;;;8.45;51.00;99493.40;1743334;82;21130;-77
2022/05/17 04:05:36;;;;;;;10.88;1.60;;;;;;;8.48;50.81;99488.93;1743568;82;21020;-76
2022/05/17 04:08:04;;;;;;;3.70;1.70;;;;;;;8.53;50.83;99490.98;1743848;82;21060;-77
2022/05/17 04:10:30;;;;;;;5.50;1.80;;;;;;;8.58;50.54;99491.32;1743661;82;21020;-76
2022/05/17 04:12:56;;;;;;;5.17;1.42;;;;;;;8.63;50.80;99489.44;1743936;82;21288;-76
2022/05/17 04:15:23;;;;;;;3.95;1.87;;;;;;;8.66;50.70;99486.73;1743574;82;21083;-76
2022/05/17 04:17:50;;;;;;;4.37;1.90;;;;;;;8.69;50.50;99486.62;1743766;82;21070;-77
2022/05/17 04:20:17;;;;;;;1.60;1.40;;;;;;;8.72;50.71;99481.30;1743736;82;21031;-77
2022/05/17 04:22:46;;;;;;;3.55;1.77;;;;;;;8.76;50.33;99481.64;1743689;82;21008;-76
2022/05/17 04:25:15;;;;;;;3.85;1.80;;;;;;;8.79;50.66;99480.22;1743816;82;21173;-75
2022/05/17 04:27:43;;;;;;;3.02;1.70;;;;;;;8.84;50.48;99474.42;1743508;82;21174;-77
2022/05/17 04:30:11;;;;;;;9.65;1.70;;;;;;;8.87;50.13;99472.99;1743751;82;21067;-77
2022/05/17 04:32:38;;;;;;;11.35;1.95;;;;;;;8.90;50.29;99476.84;1743578;82;20985;-76
2022/05/17 04:35:06;;;;;;;3.60;1.60;;;;;;;8.95;50.04;99466.23;1743726;82;21079;-75
2022/05/17 04:37:34;;;;;;;6.78;1.70;;;;;;;9.00;50.24;99473.52;1743428;82;21764;-76
2022/05/17 04:40:11;;;;;;;6.58;1.72;;;;;;;9.05;50.29;99468.14;1752273;81;21068;-77
2022/05/17 04:42:39;;;;;;;;;;;;;;;9.11;50.06;99478.44;1754620;81;21052;-76
2022/05/17 04:45:08;;;;;;;4.83;1.70;;;;;;;9.18;50.25;99477.81;1751682;81;20327;-76
2022/05/17 04:47:35;;;;;;;5.65;1.75;;;;;;;9.25;50.09;99480.68;1752136;81;21124;-76
2022/05/17 04:50:01;;;;;;;6.85;1.80;;;;;;;9.34;50.05;99483.48;1728515;81;21807;-76
2022/05/17 04:52:28;;;;;;;6.20;1.50;;;;;;;9.41;49.88;99468.78;1752243;81;22017;-76
2022/05/17 04:54:54;;;;;;;8.53;1.90;;;;;;;9.51;49.75;99468.05;1752161;81;22235;-77
2022/05/17 04:57:21;;;;;;;2.52;1.75;;;;;;;9.62;49.36;99468.59;1752214;81;21565;-75
2022/05/17 04:59:47;;;;;;;4.65;2.12;;;;;;;9.77;49.24;99476.91;1752291;81;21495;-76
2022/05/17 05:02:13;;;;;;;4.22;1.90;;;;;;;9.92;48.69;99464.58;1752425;81;21820;-77
2022/05/17 05:04:40;;;;;;;6.03;1.72;;;;;;;10.09;48.69;99461.39;1752279;81;21619;-76
2022/05/17 05:07:07;;;;;;;4.58;1.92;;;;;;;10.26;48.57;99463.44;1752677;81;21919;-77
2022/05/17 05:09:33;;;;;;;2.40;1.65;;;;;;;10.40;47.83;99462.53;1752375;81;22009;-77
2022/05/17 05:12:00;;;;;;;3.22;1.77;;;;;;;10.48;47.86;99455.70;1752369;81;21564;-76
2022/05/17 05:14:28;;;;;;;6.58;1.55;;;;;;;10.57;48.27;99454.50;1752642;81;21482;-77
2022/05/17 05:16:55;;;;;;;3.52;1.60;;;;;;;10.64;47.45;99448.13;1752137;81;21084;-76
2022/05/17 05:19:21;;;;;;;10.88;1.98;;;;;;;10.71;47.39;99449.63;1752398;81;21587;-77
2022/05/17 05:21:48;;;;;;;4.22;1.40;;;;;;;10.80;47.54;99451.52;1752076;81;21083;-75
2022/05/17 05:24:15;;;;;;;4.10;1.45;;;;;;;10.91;47.36;99450.64;1752452;81;21131;-77
2022/05/17 05:26:42;;;;;;;8.68;1.50;;;;;;;11.06;47.51;99447.47;1736912;81;21091;-76
2022/05/17 05:29:08;;;;;;;2.87;1.30;;;;;;;11.25;46.06;99441.50;1735873;82;21041;-75
2022/05/17 05:31:34;;;;;;;2.50;1.20;;;;;;;11.48;45.55;99444.09;1736062;82;20962;-76
2022/05/17 05:34:01;;;;;;;2.30;1.40;;;;;;;11.70;44.77;99448.48;1735825;82;21077;-76
2022/05/17 05:36:28;;;;;;;2.35;1.42;;;;;;;11.85;44.82;99458.42;1735962;82;21069;-77
2022/05/17 05:38:55;;;;;;;1.55;1.30;;;;;;;11.97;43.94;99445.67;1735814;82;21515;-75
2022/05/17 05:41:22;;;;;;;3.90;1.52;;;;;;;12.11;44.64;99442.48;1735882;82;21006;-76
2022/05/17 05:43:48;;;;;;;3.50;1.50;;;;;;;12.33;44.06;99449.02;1735651;82;21021;-75
2022/05/17 05:46:16;;;;;;;3.75;1.30;;;;;;;12.52;44.12;99447.75;1735898;82;21092;-75
2022/05/17 05:48:44;;;;;;;4.92;1.25;;;;;;;12.71;44.07;99445.14;1733954;82;21062;-76
2022/05/17 05:51:11;;;;;;;7.05;1.40;;;;;;;12.82;43.70;99448.17;1732450;82;21789;-75
2022/05/17 05:53:39;;;;;;;6.42;1.25;;;;;;;12.87;42.81;99448.82;1732183;82;21057;-75
2022/05/17 05:56:05;;;;;;;2.92;1.15;;;;;;;12.93;43.20;99439.31;1732321;82;21042;-76
2022/05/17 05:58:36;;;;;;;4.78;1.52;;;;;;;13.03;43.38;99442.39;1732126;82;20971;-76
2022/05/17 06:01:04;;;;;;;13.40;1.87;;;;;;;13.11;42.02;99448.19;1732430;82;21028;-76
2022/05/17 06:03:30;;;;;;;10.98;1.20;;;;;;;13.07;42.28;99437.82;1732312;82;21131;-76
2022/05/17 06:05:57;;;;;;;2.75;1.45;;;;;;;13.07;43.24;99443.95;1732461;82;21109;-76
2022/05/17 06:08:24;;;;;;;2.27;1.45;;;;;;;13.18;43.14;99446.96;1732468;82;21018;-75
2022/05/17 06:10:50;;;;;;;3.90;1.50;;;;;;;13.31;42.70;99440.62;1732273;82;21051;-75
2022/05/17 06:13:18;;;;;;;2.33;1.70;;;;;;;13.37;42.23;99449.63;1732315;82;21137;-76
2022/05/17 06:15:46;;;;;;;2.10;1.25;;;;;;;13.40;41.83;99442.47;1732376;82;21555;-76
2022/05/17 06:18:12;;;;;;;3.80;1.42;;;;;;;13.47;41.28;99437.31;1732295;82;21054;-76
2022/05/17 06:20:40;;;;;;;1.30;1.20;;;;;;;13.61;40.00;99444.56;1732376;82;21530;-76
2022/05/17 06:23:08;;;;;;;3.75;1.47;;;;;;;13.65;39.14;99427.17;1732680;82;21070;-75
2022/05/17 06:25:35;;;;;;;3.45;1.40;;;;;;;13.70;39.70;99426.48;1735803;82;20996;-76
2022/05/17 06:28:03;;;;;;;4.87;1.10;;;;;;;13.82;39.64;99428.11;1743517;82;21646;-76
2022/05/17 06:30:29;;;;;;;3.40;1.40;;;;;;;13.91;39.66;99428.51;1743388;82;21071;-75
2022/05/17 06:32:57;;;;;;;5.10;1.25;;;;;;;13.99;38.65;99425.97;1743658;82;21055;-76
2022/05/17 06:35:23;;;;;;;5.78;1.60;;;;;;;14.04;38.17;99416.02;1743454;82;21074;-77
2022/05/17 06:37:49;;;;;;;2.25;1.20;;;;;;;14.10;37.70;99416.56;1743535;82;21048;-77
2022/05/17 06:40:17;;;;;;;2.33;1.30;;;;;;;14.14;37.34;99415.94;1743818;82;21574;-76
2022/05/17 06:42:43;;;;;;;10.05;1.50;;;;;;;14.22;36.24;99416.84;1743409;82;21104;-77
2022/05/17 06:45:11;;;;;;;3.33;1.20;;;;;;;14.28;36.24;99413.42;1744107;82;21090;-76
2022/05/17 06:47:40;;;;;;;6.03;1.10;;;;;;;14.30;35.12;99404.08;1748027;81;21056;-77
2022/05/17 06:50:08;;;;;;;6.67;1.67;;;;;;;14.31;36.07;99407.13;1752673;81;21542;-77
2022/05/17 06:52:36;;;;;;;3.02;1.50;;;;;;;14.40;35.95;99405.31;1752499;81;21549;-77
2022/05/17 06:55:04;;;;;;;7.30;1.30;;;;;;;14.55;35.40;99409.42;1752313;81;21143;-77
2022/05/17 06:57:30;;;;;;;8.50;1.50;;;;;;;14.66;34.89;99396.52;1752611;81;21136;-77
2022/05/17 06:59:57;;;;;;;4.87;1.35;;;;;;;14.75;35.08;99392.03;1752425;80;21029;-77
2022/05/17 07:02:23;;;;;;;3.75;1.17;;;;;;;14.90;34.10;99388.18;1704088;81;21084;-77
2022/05/17 07:04:49;;;;;;;3.65;1.22;;;;;;;15.04;33.91;99386.94;1752466;81;21249;-77
2022/05/17 07:07:16;;;;;;;1.82;1.10;;;;;;;15.15;33.41;99384.56;1752345;80;21076;-75
2022/05/17 07:13:07;;;;;;;2.02;1.10;;;;;;;15.21;33.37;99396.16;1752520;81;21104;-76
2022/05/17 07:14:56;;;;;;;1.75;1.00;;;;;;;15.42;33.14;99381.30;1752703;81;21559;-76
2022/05/17 07:17:22;;;;;;;2.75;1.00;;;;;;;15.52;32.92;99385.13;1752678;81;22127;-76
2022/05/17 07:19:49;;;;;;;3.42;0.80;;;;;;;15.63;31.63;99374.38;1752650;81;21595;-76
2022/05/17 07:22:15;;;;;;;1.50;1.00;;;;;;;15.68;31.90;99382.44;1752583;80;21021;-76
2022/05/17 07:24:46;;;;;;;4.60;1.62;;;;;;;15.66;32.33;99374.20;1752402;81;21037;-76
2022/05/17 07:27:13;;;;;;;3.72;0.98;;;;;;;15.64;31.25;99380.92;1752054;80;21029;-76
2022/05/17 07:29:39;;;;;;;10.38;1.17;;;;;;;15.54;31.63;99377.09;1752285;81;22166;-77
2022/05/17 07:32:08;;;;;;;5.08;0.80;;;;;;;15.50;32.04;99379.52;1752652;81;21068;-77
2022/05/17 07:34:35;;;;;;;3.15;0.60;;;;;;;15.61;31.23;99365.18;1752387;81;21041;-76
2022/05/17 07:37:03;;;;;;;6.42;0.70;;;;;;;15.79;31.74;99363.30;1752461;81;21008;-76
2022/05/17 07:39:30;;;;;;;4.67;0.70;;;;;;;16.06;31.57;99363.94;1752424;81;21171;-76
2022/05/17 07:41:57;;;;;;;2.00;0.80;;;;;;;16.26;30.40;99362.74;1752609;81;21149;-77
2022/05/17 07:44:24;;;;;;;0.55;0.53;;;;;;;16.27;30.68;99353.36;1752329;81;21492;-76
2022/05/17 07:46:52;;;;;;;0.82;0.60;;;;;;;16.23;30.60;99372.22;1750608;81;21050;-77
2022/05/17 07:49:18;;;;;;;2.50;0.70;;;;;;;16.14;30.75;99363.02;1743669;82;21067;-76
2022/05/17 07:51:46;;;;;;;2.42;0.70;;;;;;;16.10;30.79;99356.16;1743459;81;21090;-74
2022/05/17 07:54:14;;;;;;;9.10;0.75;;;;;;;16.12;31.16;99354.27;1743523;82;21149;-76
2022/05/17 07:56:40;;;;;;;0.70;0.47;;;;;;;16.20;31.06;99354.66;1743452;82;21570;-77
2022/05/17 07:59:08;;;;;;;1.60;0.30;;;;;;;16.30;29.34;99365.09;1743457;82;21130;-77
2022/05/17 08:01:34;;;;;;;1.10;0.70;;;;;;;16.35;28.45;99344.42;1743371;82;21119;-76
2022/05/17 08:04:02;;;;;;;5.28;0.82;;;;;;;16.37;29.39;99327.56;1743328;82;21012;-77
2022/05/17 08:06:29;;;;;;;10.03;0.55;;;;;;;16.56;30.30;99349.39;1743554;82;21234;-77
2022/05/17 08:08:56;;;;;;;5.60;0.80;;;;;;;16.79;29.59;99345.75;1743550;82;21075;-76
2022/05/17 08:11:24;;;;;;;3.92;0.53;;;;;;;16.85;29.17;99353.37;1743828;82;21016;-76
2022/05/17 08:13:51;;;;;;;4.60;0.78;;;;;;;16.79;29.93;99346.59;1743553;82;21495;-77
2022/05/17 08:16:17;;;;;;;6.92;0.50;;;;;;;16.85;30.00;99341.42;1743787;82;21629;-75
2022/05/17 08:18:44;;;;;;;8.20;0.62;;;;;;;16.86;29.78;99336.47;1743888;82;21508;-77
2022/05/17 08:21:10;;;;;;;1.87;0.78;;;;;;;16.79;30.22;99328.48;1743691;82;21213;-77
2022/05/17 08:23:37;;;;;;;2.12;0.60;;;;;;;16.71;30.83;99323.67;1743288;82;21084;-77
2022/05/17 08:28:48;;;;;;;2.20;0.60;;;;;;;16.64;29.90;99339.59;1732332;82;21125;-76
2022/05/17 08:31:15;;;;;;;1.70;0.50;;;;;;;16.50;30.96;99332.49;1732215;82;21244;-77
2022/05/17 08:33:41;;;;;;;0.47;0.47;;;;;;;16.57;31.07;99319.20;1732173;82;21058;-74
2022/05/17 08:36:10;;;;;;;0.50;0.50;;;;;;;16.83;31.35;99314.91;1732439;82;21005;-76
2022/05/17 08:38:50;;;;;;;3.50;0.62;;;;;;;17.16;30.94;99311.53;1732301;82;21081;-76
2022/05/17 08:41:42;;;;;;;6.03;0.60;;;;;;;17.31;29.56;99317.17;1732050;82;21125;-77
2022/05/17 08:44:14;;;;;;;5.80;0.80;;;;;;;17.33;29.84;99295.34;1731509;82;21474;-76
2022/05/17 08:47:11;;;;;;;4.67;0.80;;;;;;;17.40;30.04;99300.63;1732406;82;21635;-75
2022/05/17 08:49:53;;;;;;;11.80;0.80;;;;;;;17.25;27.60;99297.66;1731965;82;21211;-76
2022/05/17 08:52:22;;;;;;;5.27;1.03;;;;;;;16.87;29.29;99293.02;1732565;82;21537;-75
2022/05/17 08:55:02;;;;;;;5.33;0.90;;;;;;;16.71;28.80;99322.34;1703609;82;21161;-76
2022/05/17 08:57:34;;;;;;;10.95;0.70;;;;;;;16.63;29.15;99290.94;1732900;82;21132;-76
2022/05/17 09:00:12;;;;;;;4.60;0.60;;;;;;;16.67;29.45;99287.13;1732165;82;21129;-75
2022/05/17 09:02:43;;;;;;;2.05;0.50;;;;;;;16.79;29.47;99290.80;1732220;82;21533;-75
2022/05/17 09:05:44;;;;;;;1.52;0.60;;;;;;;17.00;29.12;99277.98;1732308;82;21529;-75
2022/05/17 09:08:29;;;;;;;3.85;0.85;;;;;;;17.21;28.98;99277.52;1732345;82;21023;-76
2022/05/17 09:11:09;;;;;;;9.98;0.90;;;;;;;17.27;28.93;99279.78;1732515;82;21780;-75
2022/05/17 09:14:01;;;;;;;5.08;1.00;;;;;;;17.16;28.50;99287.61;1732278;82;21000;-75
2022/05/17 09:16:32;;;;;;;9.28;0.80;;;;;;;17.20;30.25;99274.51;1732214;82;21573;-76
2022/05/17 09:18:58;;;;;;;7.15;0.88;;;;;;;17.46;28.53;99285.56;1731376;82;21177;-76
2022/05/17 09:21:32;;;;;;;9.33;1.10;;;;;;;17.54;28.60;99269.11;1732594;82;21082;-75
2022/05/17 09:24:07;;;;;;;4.43;0.60;;;;;;;17.60;29.16;99278.47;1732687;82;21153;-74
2022/05/17 09:26:34;;;;;;;9.75;0.80;;;;;;;17.74;29.38;99279.73;1733252;82;21134;-76
2022/05/17 09:29:23;;;;;;;3.60;0.70;;;;;;;17.80;28.56;99274.00;1735711;82;21093;-78
2022/05/17 09:31:57;;;;;;;4.15;0.98;;;;;;;17.72;28.62;99260.82;1734562;82;21074;-76
2022/05/17 09:34:38;;;;;;;1.20;0.72;;;;;;;17.51;28.62;99267.13;1735534;82;21042;-78
2022/05/17 09:37:16;;;;;;;4.33;0.55;;;;;;;17.34;29.87;99254.48;1735816;82;21219;-76
2022/05/17 09:39:49;;;;;;;7.55;0.80;;;;;;;17.33;31.27;99259.45;1735590;82;21064;-74
2022/05/17 09:42:45;;;;;;;1.67;0.78;;;;;;;17.44;30.32;99256.90;1725280;82;21136;-74
2022/05/17 09:45:15;;;;;;;7.72;1.02;;;;;;;17.61;30.25;99258.91;1686156;83;21097;-77
2022/05/17 09:47:58;;;;;;;10.53;1.05;;;;;;;17.86;29.40;99245.26;1709659;83;21077;-75
2022/05/17 09:53:18;;;;;;;6.60;1.40;;;;;;;17.77;29.24;99256.03;1709511;83;21077;-76
2022/05/17 09:55:51;;;;;;;10.58;1.27;;;;;;;17.55;30.11;99250.00;1709093;83;21140;-75
2022/05/17 09:58:33;;;;;;;7.60;1.40;;;;;;;17.53;29.37;99247.92;1686742;83;21034;-75
2022/05/17 10:01:01;;;;;;;5.47;1.00;;;;;;;17.64;29.86;99234.27;1709881;83;21081;-75
2022/05/17 10:03:34;;;;;;;7.60;0.98;;;;;;;17.89;29.19;99233.95;1709576;83;21230;-76
2022/05/17 10:06:07;;;;;;;8.93;1.67;;;;;;;17.96;28.33;99222.40;1709528;83;21093;-76
2022/05/17 10:08:42;;;;;;;7.80;1.77;;;;;;;17.81;28.42;99246.41;1709437;83;21077;-76
2022/05/17 10:11:24;;;;;;;8.48;1.27;;;;;;;17.52;28.82;99232.94;1709860;83;21618;-77
2022/05/17 10:13:58;;;;;;;4.87;1.20;;;;;;;17.31;29.14;99230.75;1709399;83;21078;-75
2022/05/17 10:16:49;;;;;;;6.42;1.00;;;;;;;17.23;29.40;99250.35;1709814;83;21181;-75
2022/05/17 10:19:34;;;;;;;4.47;1.15;;;;;;;17.20;29.52;99227.98;1709597;83;21066;-75
2022/05/17 10:22:26;;;;;;;4.20;1.07;;;;;;;17.34;29.98;99234.54;1710290;83;21121;-76
2022/05/17 10:25:14;;;;;;;10.15;1.00;;;;;;;17.53;28.95;99210.69;1708271;83;21684;-74
2022/05/17 10:27:56;;;;;;;0.93;0.72;;;;;;;17.68;29.13;99210.95;1707086;83;21121;-75
2022/05/17 10:30:55;;;;;;;3.02;0.80;;;;;;;17.74;28.77;99210.55;1705355;83;21761;-74
2022/05/17 10:33:30;;;;;;;12.95;0.90;;;;;;;17.60;28.25;99198.20;1706357;84;21843;-75
2022/05/17 10:36:03;;;;;;;11.93;1.00;;;;;;;17.36;29.60;99205.19;1706177;84;21055;-76
2022/05/17 10:38:34;;;;;;;10.05;0.65;;;;;;;17.25;29.67;99197.95;1706377;84;21075;-76
2022/05/17 10:41:04;;;;;;;5.65;0.85;;;;;;;17.29;29.85;99183.48;1706220;83;21121;-77
2022/05/17 10:43:35;;;;;;;7.10;0.90;;;;;;;17.54;29.56;99193.78;1687650;84;21225;-76
2022/05/17 10:46:21;;;;;;;15.98;1.07;;;;;;;17.61;28.92;99180.42;1706255;84;21058;-75
2022/05/17 10:49:23;;;;;;;11.83;0.95;;;;;;;17.56;29.25;99184.72;1706384;83;21055;-76
2022/05/17 10:52:26;;;;;;;5.58;1.00;;;;;;;17.57;30.15;99180.28;1711872;82;21066;-75
2022/05/17 10:55:37;;;;;;;5.03;1.15;;;;;;;17.73;30.00;99171.58;1735714;82;21723;-74
2022/05/17 10:58:37;;;;;;;8.63;0.95;;;;;;;17.94;29.87;99164.44;1735718;82;21914;-74
2022/05/17 11:01:09;;;;;;;6.83;0.85;;;;;;;18.13;27.80;99154.16;1735382;81;21053;-74
2022/05/17 11:04:06;;;;;;;4.10;0.80;;;;;;;18.10;28.42;99173.01;1717063;82;21050;-75
2022/05/17 11:06:48;;;;;;;1.50;0.80;;;;;;;18.10;29.81;99156.19;1724181;82;21120;-75
2022/05/17 11:09:47;;;;;;;12.58;1.00;;;;;;;18.41;29.06;99156.17;1735568;82;21057;-76
2022/05/17 11:12:15;;;;;;;2.95;0.70;;;;;;;18.65;28.54;99167.33;1735612;82;21157;-75
2022/05/17 11:14:59;;;;;;;4.95;0.60;;;;;;;18.77;26.88;99153.08;1735706;82;21494;-76
2022/05/17 11:17:44;;;;;;;8.18;0.88;;;;;;;18.70;28.08;99146.52;1730993;82;21093;-75
2022/05/17 11:20:23;;;;;;;;;;;;;;;18.61;26.57;99160.50;1738242;82;20998;-75
2022/05/17 11:23:18;;;;;;;10.72;1.35;;;;;;;18.48;26.69;99162.74;1736147;82;20204;-75
2022/05/17 11:25:56;;;;;;;9.43;0.88;;;;;;;18.51;26.84;99169.19;1736028;82;21810;-75
2022/05/17 11:28:45;;;;;;;7.55;1.02;;;;;;;18.58;27.71;99158.93;1737792;81;21658;-75
2022/05/17 11:31:31;;;;;;;8.10;0.90;;;;;;;18.62;26.81;99152.40;1738589;82;21128;-75
2022/05/17 11:34:31;;;;;;;6.80;1.20;;;;;;;18.42;27.33;99141.88;1739044;82;21671;-76
2022/05/17 11:37:03;;;;;;;17.95;1.07;;;;;;;18.28;27.10;99138.89;1738549;82;21045;-76
2022/05/17 11:39:39;;;;;;;5.50;1.20;;;;;;;18.34;27.04;99130.92;1738874;82;21657;-76
2022/05/17 11:42:09;;;;;;;10.35;0.80;;;;;;;18.52;27.00;99127.40;1738721;82;21117;-76
2022/05/17 11:44:47;;;;;;;6.55;1.12;;;;;;;18.78;26.99;99118.81;1738691;82;21049;-76
2022/05/17 11:47:38;;;;;;;40.80;2.00;;;;;;;19.11;25.85;99129.23;1738411;82;21660;-75
2022/05/17 11:50:31;;;;;;;22.70;1.45;;;;;;;19.18;26.31;99118.95;1727417;81;21027;-75
2022/05/17 11:53:29;;;;;;;16.15;1.00;;;;;;;19.18;25.70;99129.63;1728701;83;21051;-75
2022/05/17 11:56:34;;;;;;;10.63;1.05;;;;;;;19.07;25.67;99122.45;1728793;83;21077;-76
2022/05/17 11:59:12;;;;;;;19.00;1.30;;;;;;;18.99;25.57;99115.03;1728716;83;21110;-75
2022/05/17 12:01:43;;;;;;;13.55;1.12;;;;;;;19.24;26.03;99115.33;1726607;83;21114;-75
2022/05/17 12:04:30;;;;;;;15.20;1.40;;;;;;;19.49;23.81;99124.11;1729050;83;21019;-75
2022/05/17 12:07:04;;;;;;;11.00;0.82;;;;;;;19.48;23.74;99099.72;1729009;83;21090;-75